Time;durP1;ratioP1;P1;durP2;ratioP2;P2;SDS_P1;SDS_P2;PMS_P1;PMS_P2;Temp;Humidity;BMP_temperature;BMP_pressure;BME280_temperature;BME280_humidity;BME280_pressure;Samples;Min_cycle;Max_cycle;Signal;HPM_P1;HPM_P2
2021/07/25 00:00:31;;;;;;;38.35;27.23;;;;;;;18.18;100.00;100508.69;6322389;28;20506;-76
2021/07/25 00:03:33;;;;;;;42.70;28.60;;;;;;;18.20;100.00;100505.88;6322410;28;20044;-75
2021/07/25 00:06:34;;;;;;;37.05;28.52;;;;;;;18.16;100.00;100493.81;6322116;28;20396;-76
2021/07/25 00:09:36;;;;;;;40.30;28.83;;;;;;;18.13;100.00;100497.63;6322210;28;20048;-76
2021/07/25 00:12:39;;;;;;;41.85;29.13;;;;;;;18.11;100.00;100494.22;6321890;28;20052;-76
2021/07/25 00:15:40;;;;;;;44.50;30.48;;;;;;;18.12;100.00;100495.06;6322151;28;20542;-76
2021/07/25 00:18:42;;;;;;;43.95;30.45;;;;;;;18.16;100.00;100489.34;6321889;28;20051;-76
2021/07/25 00:21:43;;;;;;;56.38;30.98;;;;;;;18.20;100.00;100484.59;6321676;28;20044;-75
2021/07/25 00:24:50;;;;;;;48.17;32.92;;;;;;;18.26;100.00;100481.41;6322079;28;20044;-78
2021/07/25 00:27:54;;;;;;;58.97;35.63;;;;;;;18.21;100.00;100478.28;6322000;28;20048;-76
2021/07/25 00:30:56;;;;;;;61.47;37.72;;;;;;;18.24;100.00;100476.19;6320977;28;20051;-75
2021/07/25 00:33:57;;;;;;;64.65;37.47;;;;;;;18.27;100.00;100469.78;6321889;28;20052;-75
2021/07/25 00:36:59;;;;;;;57.33;36.92;;;;;;;18.25;100.00;100471.72;6321600;28;20410;-76
2021/07/25 00:40:01;;;;;;;60.08;37.88;;;;;;;18.23;100.00;100461.22;6321818;28;20048;-76
2021/07/25 00:43:04;;;;;;;66.15;40.53;;;;;;;18.26;100.00;100465.44;6321690;28;20047;-78
2021/07/25 00:46:05;;;;;;;68.47;40.42;;;;;;;18.21;100.00;100464.97;6321546;28;20048;-76
2021/07/25 00:49:07;;;;;;;71.03;41.60;;;;;;;18.21;100.00;100462.31;6320995;28;20415;-76
2021/07/25 00:52:09;;;;;;;65.85;41.60;;;;;;;18.23;100.00;100455.91;6321251;28;20048;-76
2021/07/25 00:55:12;;;;;;;76.85;45.33;;;;;;;18.25;100.00;100453.94;6321452;28;20055;-75
2021/07/25 00:58:15;;;;;;;83.47;44.10;;;;;;;18.24;100.00;100457.56;6321551;28;20044;-76
2021/07/25 01:01:21;;;;;;;83.82;46.53;;;;;;;18.24;100.00;100454.91;6321014;28;20484;-76
2021/07/25 01:04:37;;;;;;;87.50;47.38;;;;;;;18.23;100.00;100455.06;6321616;28;20068;-76
2021/07/25 01:07:48;;;;;;;79.22;45.45;;;;;;;18.24;100.00;100454.91;6321220;28;20048;-76
2021/07/25 01:10:53;;;;;;;85.53;49.10;;;;;;;18.22;100.00;100456.06;6322530;28;20051;-78
2021/07/25 01:13:59;;;;;;;88.72;48.45;;;;;;;18.20;100.00;100463.31;6321209;28;20505;-76
2021/07/25 01:17:30;;;;;;;86.72;51.03;;;;;;;18.18;100.00;100454.66;6321084;28;20516;-77
2021/07/25 01:20:32;;;;;;;85.38;49.85;;;;;;;18.18;100.00;100451.97;6320892;28;20460;-76
2021/07/25 01:23:33;;;;;;;88.45;51.00;;;;;;;18.19;100.00;100451.00;6321375;28;20059;-76
2021/07/25 01:26:41;;;;;;;89.65;48.80;;;;;;;18.17;100.00;100456.47;6321241;28;20414;-75
2021/07/25 01:29:44;;;;;;;93.40;52.58;;;;;;;18.16;100.00;100453.91;6321036;28;20419;-77
2021/07/25 01:32:45;;;;;;;89.78;49.63;;;;;;;18.15;100.00;100461.06;6320950;28;20044;-76
2021/07/25 01:35:49;;;;;;;94.28;52.15;;;;;;;18.13;100.00;100465.69;6320995;28;20097;-77
2021/07/25 01:38:53;;;;;;;99.18;52.70;;;;;;;18.11;100.00;100457.00;6321017;28;20052;-77
2021/07/25 01:41:54;;;;;;;104.70;51.25;;;;;;;18.10;100.00;100473.94;6322370;28;20063;-76
2021/07/25 01:44:55;;;;;;;88.93;47.90;;;;;;;18.10;100.00;100479.25;6325943;28;20052;-76
2021/07/25 01:47:57;;;;;;;94.05;49.05;;;;;;;18.08;100.00;100470.59;6325177;28;20052;-77
2021/07/25 01:51:00;;;;;;;103.38;54.60;;;;;;;18.07;100.00;100478.69;6325304;28;20435;-77
2021/07/25 01:54:01;;;;;;;97.72;51.30;;;;;;;18.08;100.00;100475.06;6325699;28;20055;-77
2021/07/25 01:57:03;;;;;;;102.22;50.42;;;;;;;18.05;100.00;100472.69;6325429;28;20075;-76
2021/07/25 02:00:06;;;;;;;95.30;50.25;;;;;;;18.04;100.00;100473.66;6325289;28;20044;-77
2021/07/25 02:03:07;;;;;;;98.40;50.72;;;;;;;18.03;100.00;100478.09;6325171;28;20070;-76
2021/07/25 02:06:10;;;;;;;86.75;50.13;;;;;;;18.03;100.00;100477.28;6325018;28;20063;-76
2021/07/25 02:09:12;;;;;;;105.38;52.53;;;;;;;18.03;100.00;100490.56;6325698;28;20518;-76
2021/07/25 02:12:13;;;;;;;98.05;52.08;;;;;;;17.97;100.00;100483.97;6324874;28;20048;-76
2021/07/25 02:15:15;;;;;;;93.05;52.42;;;;;;;17.95;100.00;100485.94;6325376;28;20424;-76
2021/07/25 02:18:16;;;;;;;93.72;53.95;;;;;;;17.92;100.00;100492.38;6324987;28;20051;-76
2021/07/25 02:21:19;;;;;;;98.80;53.15;;;;;;;17.93;100.00;100496.69;6325062;28;20048;-77
2021/07/25 02:24:21;;;;;;;104.80;55.47;;;;;;;17.91;100.00;100497.84;6324896;28;20044;-76
2021/07/25 02:27:22;;;;;;;100.70;55.22;;;;;;;17.91;100.00;100500.50;6324999;28;20047;-76
2021/07/25 02:30:23;;;;;;;109.03;54.67;;;;;;;17.91;100.00;100511.13;6324673;28;20044;-76
2021/07/25 02:33:25;;;;;;;99.57;54.47;;;;;;;17.91;100.00;100516.44;6324395;28;20041;-77
2021/07/25 02:36:27;;;;;;;105.60;55.67;;;;;;;17.90;100.00;100515.59;6324465;28;20067;-77
2021/07/25 02:39:29;;;;;;;101.68;55.25;;;;;;;17.86;100.00;100518.66;6324464;28;20048;-76
2021/07/25 02:42:30;;;;;;;103.03;54.50;;;;;;;17.88;100.00;100520.19;6324333;28;20051;-77
2021/07/25 02:45:31;;;;;;;106.32;52.72;;;;;;;17.87;100.00;100526.50;6323993;28;20499;-77
2021/07/25 02:48:33;;;;;;;102.10;55.10;;;;;;;17.88;100.00;100514.88;6323967;28;20051;-76
2021/07/25 02:51:35;;;;;;;106.20;55.33;;;;;;;17.87;100.00;100523.84;6323735;28;20056;-77
2021/07/25 02:54:37;;;;;;;99.95;54.95;;;;;;;17.87;100.00;100528.31;6323960;28;20554;-77
2021/07/25 02:57:38;;;;;;;93.72;52.10;;;;;;;17.89;100.00;100531.66;6323963;28;20044;-77
2021/07/25 03:00:39;;;;;;;104.75;53.00;;;;;;;17.89;100.00;100534.31;6324008;28;20048;-77
2021/07/25 03:03:41;;;;;;;107.70;55.42;;;;;;;17.88;100.00;100528.16;6324145;28;20055;-77
2021/07/25 03:06:44;;;;;;;101.47;53.70;;;;;;;17.85;100.00;100538.22;6323759;28;20055;-78
2021/07/25 03:09:45;;;;;;;100.18;53.50;;;;;;;17.84;100.00;100525.91;6323827;28;20048;-76
2021/07/25 03:12:47;;;;;;;103.03;54.28;;;;;;;17.81;100.00;100531.53;6323731;28;20487;-77
2021/07/25 03:15:48;;;;;;;98.43;51.85;;;;;;;17.81;100.00;100540.34;6323899;28;20052;-77
2021/07/25 03:18:50;;;;;;;93.00;50.95;;;;;;;17.76;100.00;100539.91;6323445;28;20055;-77
2021/07/25 03:21:52;;;;;;;99.72;51.28;;;;;;;17.73;100.00;100545.44;6323471;28;20056;-77
2021/07/25 03:24:54;;;;;;;104.28;51.00;;;;;;;17.70;100.00;100537.72;6323431;28;20052;-77
2021/07/25 03:27:55;;;;;;;128.57;54.50;;;;;;;17.67;100.00;100538.00;6323525;28;20052;-77
2021/07/25 03:30:57;;;;;;;105.18;53.17;;;;;;;17.64;100.00;100532.94;6323028;28;20044;-77
2021/07/25 03:33:59;;;;;;;96.18;52.45;;;;;;;17.62;100.00;100533.09;6323147;28;20487;-77
2021/07/25 03:37:03;;;;;;;99.65;52.10;;;;;;;17.58;100.00;100541.47;6323116;28;20051;-79
2021/07/25 03:40:06;;;;;;;98.53;51.00;;;;;;;17.54;100.00;100540.03;6323185;28;20506;-77
2021/07/25 03:43:07;;;;;;;97.97;51.00;;;;;;;17.49;100.00;100540.44;6322621;28;20419;-76
2021/07/25 03:46:08;;;;;;;104.20;51.85;;;;;;;17.48;100.00;100538.72;6322983;28;20047;-77
2021/07/25 03:49:10;;;;;;;94.50;51.72;;;;;;;17.47;100.00;100542.34;6322453;28;20048;-77
2021/07/25 03:52:13;;;;;;;88.72;50.35;;;;;;;17.41;100.00;100548.19;6322560;28;20052;-78
2021/07/25 03:55:16;;;;;;;98.68;50.17;;;;;;;17.38;100.00;100548.44;6322614;28;20047;-77
2021/07/25 03:58:17;;;;;;;108.00;51.30;;;;;;;17.38;100.00;100551.09;6322709;28;20050;-78
2021/07/25 04:01:18;;;;;;;91.28;50.47;;;;;;;17.37;100.00;100549.44;6322356;28;20388;-77
2021/07/25 04:04:20;;;;;;;97.35;53.97;;;;;;;17.35;100.00;100546.91;6321740;28;20047;-79
2021/07/25 04:07:22;;;;;;;90.63;49.67;;;;;;;17.33;100.00;100551.50;6322340;28;20418;-77
2021/07/25 04:10:24;;;;;;;99.55;51.63;;;;;;;17.33;100.00;100555.97;6322143;28;20048;-76
2021/07/25 04:13:25;;;;;;;91.57;49.25;;;;;;;17.31;100.00;100558.78;6322170;28;20066;-77
2021/07/25 04:16:26;;;;;;;91.85;50.70;;;;;;;17.27;100.00;100552.03;6322068;28;20052;-77
2021/07/25 04:19:28;;;;;;;101.03;51.80;;;;;;;17.33;100.00;100561.28;6322125;28;20044;-77
2021/07/25 04:22:34;;;;;;;83.97;45.00;;;;;;;17.33;100.00;100559.47;6322045;28;20046;-77
2021/07/25 04:25:35;;;;;;;94.40;49.38;;;;;;;17.35;100.00;100569.94;6321891;28;20509;-77
2021/07/25 04:28:37;;;;;;;88.00;46.47;;;;;;;17.37;100.00;100578.66;6321803;28;20491;-77
2021/07/25 04:31:38;;;;;;;90.03;49.78;;;;;;;17.38;100.00;100572.38;6321949;28;20052;-77
2021/07/25 04:34:40;;;;;;;99.55;50.60;;;;;;;17.40;100.00;100576.59;6321798;28;20044;-77
2021/07/25 04:37:48;;;;;;;92.95;48.42;;;;;;;17.38;100.00;100573.19;6321752;28;20054;-77
2021/07/25 04:40:56;;;;;;;96.20;50.85;;;;;;;17.36;100.00;100569.84;6321367;28;20411;-77
2021/07/25 04:44:04;;;;;;;99.15;51.28;;;;;;;17.33;100.00;100571.91;6321818;28;20484;-77
2021/07/25 04:47:13;;;;;;;89.93;46.65;;;;;;;17.33;100.00;100574.56;6321139;28;20044;-77
2021/07/25 04:50:17;;;;;;;83.15;44.03;;;;;;;17.34;100.00;100569.13;6321888;28;20054;-77
2021/07/25 04:53:24;;;;;;;91.53;46.75;;;;;;;17.34;100.00;100569.13;6321297;28;20044;-77
2021/07/25 04:56:26;;;;;;;100.72;49.08;;;;;;;17.34;100.00;100569.13;6321636;28;20418;-77
2021/07/25 04:59:29;;;;;;;94.35;48.97;;;;;;;17.33;100.00;100575.41;6321716;28;20051;-77
2021/07/25 05:02:31;;;;;;;100.45;47.83;;;;;;;17.36;100.00;100583.13;6321347;28;20044;-77
2021/07/25 05:05:33;;;;;;;90.75;48.83;;;;;;;17.36;100.00;100584.94;6321391;28;20136;-77
2021/07/25 05:08:37;;;;;;;87.13;45.80;;;;;;;17.36;100.00;100591.09;6321254;28;20056;-77
2021/07/25 05:11:43;;;;;;;91.97;47.88;;;;;;;17.37;100.00;100591.94;6321272;28;20052;-77
2021/07/25 05:14:57;;;;;;;85.80;47.25;;;;;;;17.38;100.00;100581.16;6321047;28;20116;-77
2021/07/25 05:18:04;;;;;;;84.03;45.53;;;;;;;17.37;100.00;100594.59;6326314;28;20491;-77
2021/07/25 05:21:16;;;;;;;78.07;43.97;;;;;;;17.38;100.00;100601.59;6326212;28;20519;-77
2021/07/25 05:24:22;;;;;;;88.78;45.05;;;;;;;17.37;100.00;100603.41;6326233;28;20059;-77
2021/07/25 05:27:24;;;;;;;82.85;45.08;;;;;;;17.40;100.00;100592.53;6326344;28;20495;-77
2021/07/25 05:30:27;;;;;;;78.30;42.55;;;;;;;17.42;100.00;100593.22;6326119;28;20052;-78
2021/07/25 05:33:28;;;;;;;76.53;43.53;;;;;;;17.40;100.00;100592.53;6325631;28;20487;-77
2021/07/25 05:36:30;;;;;;;82.75;44.78;;;;;;;17.43;100.00;100594.91;6313113;28;20045;-77
2021/07/25 05:39:33;;;;;;;83.03;43.15;;;;;;;17.44;100.00;100595.75;6325603;28;20040;-77
2021/07/25 05:42:34;;;;;;;69.25;41.40;;;;;;;17.43;100.00;100594.06;6325800;28;20048;-79
2021/07/25 05:45:36;;;;;;;80.53;42.08;;;;;;;17.45;100.00;100597.44;6325621;28;20040;-77
2021/07/25 05:48:37;;;;;;;67.80;38.65;;;;;;;17.48;100.00;100603.31;6325309;28;20499;-79
2021/07/25 05:51:38;;;;;;;72.75;39.35;;;;;;;17.48;100.00;100605.97;6325161;28;20055;-79
2021/07/25 05:54:41;;;;;;;74.20;40.00;;;;;;;17.52;100.00;100609.22;6325727;28;20048;-79
2021/07/25 05:57:42;;;;;;;76.22;40.42;;;;;;;17.55;100.00;100605.47;6325286;28;20051;-80
2021/07/25 06:00:44;;;;;;;81.20;40.15;;;;;;;17.56;100.00;100613.31;6322245;28;20055;-77
2021/07/25 06:03:45;;;;;;;69.13;39.47;;;;;;;17.60;100.00;100616.56;6303189;28;20056;-78
2021/07/25 06:06:47;;;;;;;68.40;37.72;;;;;;;17.61;100.00;100611.09;6300443;28;20052;-78
2021/07/25 06:09:49;;;;;;;61.75;35.25;;;;;;;17.65;100.00;100609.03;6307950;28;20052;-76
2021/07/25 06:12:52;;;;;;;68.88;36.90;;;;;;;17.68;100.00;100622.06;6308432;28;20040;-79
2021/07/25 06:15:53;;;;;;;60.70;36.65;;;;;;;17.69;100.00;100618.44;6300100;28;20067;-79
2021/07/25 06:18:54;;;;;;;53.45;34.45;;;;;;;17.73;100.00;100611.88;6310744;28;20051;-79
2021/07/25 06:21:56;;;;;;;61.55;36.42;;;;;;;17.74;100.00;100618.91;6314754;28;20071;-78
2021/07/25 06:24:59;;;;;;;68.13;37.58;;;;;;;17.76;100.00;100616.97;6309775;28;20037;-80
2021/07/25 06:28:02;;;;;;;72.15;38.55;;;;;;;17.79;100.00;100629.16;6311515;28;20052;-79
2021/07/25 06:31:03;;;;;;;62.85;35.65;;;;;;;17.82;100.00;100621.75;6299227;28;20431;-80
2021/07/25 06:34:04;;;;;;;63.72;36.20;;;;;;;17.89;100.00;100628.22;6299703;28;20045;-78
2021/07/25 06:37:07;;;;;;;66.40;36.70;;;;;;;17.92;100.00;100627.97;6299681;28;20049;-79
2021/07/25 06:40:11;;;;;;;62.63;34.38;;;;;;;18.00;100.00;100627.31;6299585;28;20082;-79
2021/07/25 06:43:13;;;;;;;57.25;32.55;;;;;;;18.02;100.00;100629.84;6298999;28;20044;-79
2021/07/25 06:46:14;;;;;;;62.35;36.22;;;;;;;18.06;100.00;100632.09;6299726;28;20053;-78
2021/07/25 06:49:16;;;;;;;58.35;33.65;;;;;;;18.09;100.00;100642.47;6303778;28;20048;-79
2021/07/25 06:52:17;;;;;;;60.13;35.60;;;;;;;18.15;100.00;100643.75;6311859;28;20059;-79
2021/07/25 06:55:22;;;;;;;61.63;36.90;;;;;;;18.21;100.00;100635.22;6311076;28;20048;-79
2021/07/25 06:58:24;;;;;;;52.78;32.03;;;;;;;18.25;100.00;100637.50;6309173;28;20052;-79
2021/07/25 07:01:27;;;;;;;50.53;30.45;;;;;;;18.34;100.00;100643.81;6308698;28;20048;-79
2021/07/25 07:04:29;;;;;;;46.70;30.42;;;;;;;18.40;100.00;100653.13;6310244;28;20040;-79
2021/07/25 07:07:31;;;;;;;50.20;29.20;;;;;;;18.39;100.00;100654.06;6316199;28;20048;-80
2021/07/25 07:10:36;;;;;;;51.58;28.92;;;;;;;18.41;100.00;100650.31;6323770;28;20193;-79
2021/07/25 07:13:37;;;;;;;42.28;27.13;;;;;;;18.41;100.00;100644.97;6323202;28;20051;-77
2021/07/25 07:16:38;;;;;;;47.92;28.70;;;;;;;18.47;100.00;100648.91;6323753;28;20044;-78
2021/07/25 07:19:40;;;;;;;48.15;28.15;;;;;;;18.48;100.00;100648.78;6323790;28;20055;-79
2021/07/25 07:22:41;;;;;;;46.25;27.73;;;;;;;18.53;100.00;100651.06;6323134;28;20141;-77
2021/07/25 07:25:45;;;;;;;46.03;27.92;;;;;;;18.56;100.00;100657.91;6323425;28;20044;-79
2021/07/25 07:28:47;;;;;;;40.90;27.98;;;;;;;18.57;100.00;100652.44;6323251;28;20051;-79
2021/07/25 07:31:48;;;;;;;40.40;26.58;;;;;;;18.62;100.00;100655.56;6323150;28;20048;-79
2021/07/25 07:34:49;;;;;;;39.20;26.33;;;;;;;18.70;100.00;100662.88;6323302;28;20044;-78
2021/07/25 07:37:51;;;;;;;44.55;25.27;;;;;;;18.78;100.00;100656.88;6322831;28;20555;-77
2021/07/25 07:40:53;;;;;;;35.10;22.58;;;;;;;18.87;100.00;100656.06;6322910;28;20048;-76
2021/07/25 07:43:55;;;;;;;35.03;22.88;;;;;;;18.95;100.00;100659.72;6313458;28;20047;-77
2021/07/25 07:46:56;;;;;;;36.45;22.90;;;;;;;18.94;100.00;100659.84;6306919;28;20056;-77
2021/07/25 07:49:57;;;;;;;39.83;24.50;;;;;;;18.97;100.00;100660.41;6309633;28;20059;-77
2021/07/25 07:52:59;;;;;;;40.63;24.15;;;;;;;18.98;100.00;100661.25;6314829;28;20388;-78
2021/07/25 07:56:01;;;;;;;32.50;22.48;;;;;;;19.01;100.00;100658.31;6320533;28;20048;-78
2021/07/25 07:59:03;;;;;;;37.40;22.80;;;;;;;18.94;100.00;100660.72;6323192;28;20055;-78
2021/07/25 08:02:05;;;;;;;37.20;22.90;;;;;;;18.96;100.00;100661.41;6322641;28;20538;-78
2021/07/25 08:05:07;;;;;;;34.40;21.45;;;;;;;18.97;100.00;100660.41;6323341;28;20491;-78
2021/07/25 08:08:08;;;;;;;33.92;20.58;;;;;;;19.00;100.00;100654.81;6322784;28;20052;-81
2021/07/25 08:11:11;;;;;;;31.63;18.92;;;;;;;19.10;100.00;100659.31;6323085;28;20075;-78
2021/07/25 08:14:14;;;;;;;31.58;18.08;;;;;;;19.17;100.00;100660.44;6323405;28;20048;-78
2021/07/25 08:17:15;;;;;;;30.85;18.92;;;;;;;19.26;100.00;100664.94;6323287;28;20185;-77
2021/07/25 08:20:16;;;;;;;32.03;20.45;;;;;;;19.31;100.00;100657.38;6322996;28;20040;-78
2021/07/25 08:23:18;;;;;;;35.35;19.98;;;;;;;19.45;100.00;100656.09;6322581;28;20051;-78
2021/07/25 08:26:20;;;;;;;30.25;19.38;;;;;;;19.54;100.00;100665.91;6297878;28;20057;-78
2021/07/25 08:29:22;;;;;;;24.27;18.30;;;;;;;19.56;100.00;100658.59;6297848;28;20518;-79
2021/07/25 08:32:23;;;;;;;24.58;15.77;;;;;;;19.65;100.00;100652.44;6297681;28;20065;-78
2021/07/25 08:35:24;;;;;;;24.30;16.25;;;;;;;19.70;100.00;100662.69;6297827;28;20052;-78
2021/07/25 08:38:26;;;;;;;20.85;14.60;;;;;;;19.71;100.00;100659.91;6297983;28;20048;-79
2021/07/25 08:41:56;;;;;;;24.58;15.38;;;;;;;19.75;100.00;100666.59;6296750;28;20052;-79
2021/07/25 08:44:58;;;;;;;21.70;14.10;;;;;;;19.81;100.00;100667.88;6298007;28;20127;-78
2021/07/25 08:48:03;;;;;;;24.17;15.00;;;;;;;19.99;100.00;100657.31;6296671;28;20055;-78
2021/07/25 08:51:06;;;;;;;22.05;14.45;;;;;;;20.00;100.00;100664.31;6296826;28;20139;-78
2021/07/25 08:54:09;;;;;;;29.42;14.60;;;;;;;20.15;100.00;100668.19;6298077;28;20051;-78
2021/07/25 08:57:14;;;;;;;20.25;14.40;;;;;;;20.26;100.00;100660.00;6297573;28;20048;-78
2021/07/25 09:00:17;;;;;;;23.08;12.98;;;;;;;20.37;100.00;100666.16;6296937;28;20400;-76
2021/07/25 09:03:20;;;;;;;23.02;12.23;;;;;;;20.43;100.00;100663.72;6297400;28;20048;-78
2021/07/25 09:06:22;;;;;;;18.13;13.07;;;;;;;20.39;100.00;100670.34;6297140;28;20420;-78
2021/07/25 09:09:24;;;;;;;22.08;13.27;;;;;;;20.43;100.00;100663.72;6296808;28;20053;-73
2021/07/25 09:12:27;;;;;;;22.13;11.95;;;;;;;20.47;100.00;100661.59;6297027;28;20063;-78
2021/07/25 09:15:32;;;;;;;22.42;12.23;;;;;;;20.56;100.00;100665.25;6297418;28;20052;-78
2021/07/25 09:18:33;;;;;;;23.17;12.18;;;;;;;20.56;100.00;100670.59;6297280;28;20060;-78
2021/07/25 09:21:40;;;;;;;19.23;12.23;;;;;;;20.60;100.00;100656.78;6297226;28;20056;-78
2021/07/25 09:24:41;;;;;;;18.05;11.57;;;;;;;20.58;100.00;100660.63;6297359;28;20059;-78
2021/07/25 09:27:44;;;;;;;16.98;11.18;;;;;;;20.70;100.00;100657.56;6297563;28;20056;-77
2021/07/25 09:30:45;;;;;;;20.35;10.93;;;;;;;20.83;100.00;100659.88;6297428;28;20064;-78
2021/07/25 09:33:47;;;;;;;17.15;10.57;;;;;;;20.86;100.00;100661.44;6296852;28;20415;-72
2021/07/25 09:37:07;;;;;;;16.10;10.77;;;;;;;20.90;100.00;100666.31;6295645;28;20055;-72
2021/07/25 09:40:13;;;;;;;;;;;;;;;20.91;98.65;100659.13;6296242;28;20439;-72
2021/07/25 09:43:19;;;;;;;14.95;11.00;;;;;;;20.97;96.15;100662.03;6295328;28;19927;-74
2021/07/25 09:46:20;;;;;;;16.30;10.75;;;;;;;21.09;97.09;100662.66;6303584;28;20393;-73
2021/07/25 09:49:22;;;;;;;19.58;11.18;;;;;;;21.21;96.40;100652.56;6307886;28;20423;-73
2021/07/25 09:52:29;;;;;;;20.80;10.52;;;;;;;21.35;95.77;100659.25;6297145;28;20052;-74
2021/07/25 09:55:31;;;;;;;15.85;10.23;;;;;;;21.47;96.52;100655.34;6321115;28;20063;-78
2021/07/25 09:58:34;;;;;;;20.30;12.15;;;;;;;21.45;93.59;100662.69;6321816;28;20051;-78
2021/07/25 10:01:37;;;;;;;16.48;9.73;;;;;;;21.34;92.05;100666.44;6313216;28;20052;-76
2021/07/25 10:04:39;;;;;;;16.20;10.15;;;;;;;21.28;92.25;100659.84;6299792;28;20412;-78
2021/07/25 10:07:41;;;;;;;16.40;10.10;;;;;;;21.24;96.88;100662.97;6300918;28;20045;-77
2021/07/25 10:10:44;;;;;;;17.00;10.32;;;;;;;21.29;100.00;100652.66;6301265;28;20055;-77
2021/07/25 10:13:50;;;;;;;17.80;10.57;;;;;;;21.42;100.00;100654.97;6300644;28;20424;-76
2021/07/25 10:16:56;;;;;;;13.52;9.38;;;;;;;21.70;94.00;100664.56;6300392;28;20048;-78
2021/07/25 10:19:58;;;;;;;13.13;9.30;;;;;;;21.89;91.79;100657.31;6302139;28;20055;-79
2021/07/25 10:23:02;;;;;;;15.10;9.00;;;;;;;21.99;89.13;100658.06;6301771;28;20045;-79
2021/07/25 10:26:04;;;;;;;12.88;8.48;;;;;;;21.95;87.84;100659.38;6310172;28;20040;-78
2021/07/25 10:29:07;;;;;;;16.10;8.70;;;;;;;21.94;86.17;100660.38;6326355;28;20487;-78
2021/07/25 10:32:09;;;;;;;14.07;8.77;;;;;;;21.87;84.92;100654.81;6326077;28;20510;-77
2021/07/25 10:35:13;;;;;;;16.95;9.25;;;;;;;21.89;87.16;100655.50;6325471;28;20044;-78
2021/07/25 10:38:14;;;;;;;16.65;8.65;;;;;;;21.89;88.08;100655.50;6313879;28;20177;-79
2021/07/25 10:41:20;;;;;;;13.13;8.32;;;;;;;21.94;89.09;100655.03;6311057;28;20558;-79
2021/07/25 10:44:23;;;;;;;20.15;9.07;;;;;;;21.95;88.94;100652.19;6317634;28;20415;-79
2021/07/25 10:47:26;;;;;;;12.07;9.02;;;;;;;21.95;88.14;100649.53;6319317;28;20055;-78
2021/07/25 10:50:27;;;;;;;15.70;8.55;;;;;;;21.98;88.59;100649.22;6325840;28;20050;-78
2021/07/25 10:53:29;;;;;;;14.75;8.82;;;;;;;22.17;89.37;100648.19;6314369;28;20052;-78
2021/07/25 10:56:58;;;;;;;15.18;8.95;;;;;;;22.44;86.92;100657.00;6312422;28;20053;-78
2021/07/25 11:00:00;;;;;;;;;;;;;;;22.49;88.88;100655.50;6311403;28;20049;-78
2021/07/25 11:03:03;;;;;;;12.85;8.88;;;;;;;22.61;88.96;100645.31;6310880;28;20313;-78
2021/07/25 11:06:21;;;;;;;14.13;8.77;;;;;;;22.70;84.16;100646.19;6311510;28;20040;-78
2021/07/25 11:09:55;;;;;;;17.02;9.23;;;;;;;22.70;84.78;100643.50;6311817;28;20056;-78
2021/07/25 11:13:18;;;;;;;16.08;7.93;;;;;;;22.82;83.13;100647.56;6322782;28;20048;-78
2021/07/25 11:16:50;;;;;;;15.38;9.10;;;;;;;22.88;86.21;100635.34;6298166;28;20546;-78
2021/07/25 11:19:52;;;;;;;13.10;8.63;;;;;;;22.97;89.14;100634.41;6209296;28;20540;-77
2021/07/25 11:22:53;;;;;;;13.73;8.60;;;;;;;22.98;89.47;100639.63;6298801;28;20059;-78
2021/07/25 11:25:55;;;;;;;13.65;8.35;;;;;;;23.13;85.52;100636.28;6310743;28;20035;-78
2021/07/25 11:28:57;;;;;;;12.95;9.13;;;;;;;23.54;86.41;100635.28;6309563;28;20070;-79
2021/07/25 11:32:00;;;;;;;14.55;8.70;;;;;;;23.96;77.58;100628.84;6309726;28;20059;-78
2021/07/25 11:35:03;;;;;;;10.07;7.65;;;;;;;23.98;76.40;100636.72;6309903;28;20043;-77
2021/07/25 11:38:11;;;;;;;12.50;7.50;;;;;;;24.46;73.89;100625.03;6311238;28;20511;-79
2021/07/25 11:41:12;;;;;;;9.45;6.90;;;;;;;24.91;76.10;100631.50;6308677;28;20133;-78
2021/07/25 11:44:14;;;;;;;10.48;6.85;;;;;;;25.21;75.11;100639.72;6311139;28;20491;-79
2021/07/25 11:47:27;;;;;;;8.65;6.30;;;;;;;25.33;70.68;100634.75;6311169;28;20051;-79
2021/07/25 11:50:40;;;;;;;9.27;7.00;;;;;;;24.90;69.48;100634.38;6310367;28;20131;-79
2021/07/25 11:53:42;;;;;;;10.07;6.72;;;;;;;24.45;69.96;100636.78;6303338;28;20522;-79
2021/07/25 11:56:54;;;;;;;10.30;7.68;;;;;;;24.10;71.33;100639.91;6298412;28;20408;-79
2021/07/25 11:59:58;;;;;;;9.30;6.45;;;;;;;24.02;71.57;100646.13;6298638;28;20048;-79
2021/07/25 12:03:01;;;;;;;9.30;6.50;;;;;;;23.88;73.30;100642.28;6298688;28;20052;-78
2021/07/25 12:06:10;;;;;;;10.13;7.18;;;;;;;23.88;70.89;100641.47;6297748;28;20070;-78
2021/07/25 12:09:11;;;;;;;8.98;6.50;;;;;;;24.18;75.69;100643.41;6298561;28;20462;-79
2021/07/25 12:12:15;;;;;;;8.18;6.82;;;;;;;24.30;76.56;100642.03;6297827;28;20225;-79
2021/07/25 12:15:19;;;;;;;10.63;6.15;;;;;;;25.15;69.28;100635.06;6297652;28;20049;-79
2021/07/25 12:18:29;;;;;;;9.00;5.85;;;;;;;25.94;70.49;100640.94;6297743;28;20483;-79
2021/07/25 12:21:32;;;;;;;7.18;5.63;;;;;;;26.34;61.59;100631.53;6298288;28;20059;-79
2021/07/25 12:24:36;;;;;;;8.73;5.57;;;;;;;26.68;60.59;100632.81;6298527;28;20049;-79
2021/07/25 12:27:37;;;;;;;10.68;6.22;;;;;;;26.98;63.66;100626.31;6298377;28;20048;-79
2021/07/25 12:30:39;;;;;;;7.70;5.63;;;;;;;27.15;61.53;100623.38;6300710;28;20056;-79
2021/07/25 12:33:42;;;;;;;13.20;6.38;;;;;;;27.31;64.75;100625.81;6324157;28;20062;-79
2021/07/25 12:36:43;;;;;;;8.95;6.50;;;;;;;26.48;62.82;100632.56;6324260;28;20047;-80
2021/07/25 12:39:48;;;;;;;9.18;6.25;;;;;;;25.74;66.87;100625.28;6323528;28;20048;-79
2021/07/25 12:43:01;;;;;;;7.57;6.47;;;;;;;25.30;69.25;100627.88;6322887;28;20044;-79
2021/07/25 12:46:04;;;;;;;7.15;6.10;;;;;;;25.02;65.99;100623.00;6323825;28;20127;-79
2021/07/25 12:49:07;;;;;;;8.05;5.70;;;;;;;25.79;64.45;100625.59;6321840;28;20048;-79
2021/07/25 12:52:20;;;;;;;9.30;5.07;;;;;;;26.52;64.91;100621.22;6322413;28;20048;-79
2021/07/25 12:55:21;;;;;;;6.78;4.45;;;;;;;26.76;59.09;100621.94;6321947;28;20048;-73
2021/07/25 12:58:25;;;;;;;8.10;4.18;;;;;;;27.18;60.83;100614.91;6321809;28;20055;-80
2021/07/25 13:04:58;;;;;;;4.90;3.95;;;;;;;27.59;51.34;100614.22;6323751;28;20123;-79
2021/07/25 13:07:59;;;;;;;8.80;4.20;;;;;;;27.34;54.75;100611.91;6316936;28;20044;-79
2021/07/25 13:11:02;;;;;;;5.82;3.92;;;;;;;27.67;55.81;100611.38;6319827;28;20047;-79
2021/07/25 13:14:05;;;;;;;4.38;3.20;;;;;;;27.97;51.53;100618.22;6305230;28;20053;-80
2021/07/25 13:17:06;;;;;;;4.75;3.72;;;;;;;27.60;52.82;100615.88;6306586;28;20400;-80
2021/07/25 13:20:10;;;;;;;5.13;3.92;;;;;;;26.91;55.27;100617.31;6300785;28;20057;-81
2021/07/25 13:23:12;;;;;;;7.72;4.07;;;;;;;26.49;55.74;100613.53;6297444;28;20056;-79
2021/07/25 13:26:15;;;;;;;5.18;3.92;;;;;;;26.06;58.98;100607.97;6298037;28;20053;-79
2021/07/25 13:29:16;;;;;;;6.22;4.43;;;;;;;25.82;61.46;100613.63;6297877;28;20048;-80
2021/07/25 13:32:17;;;;;;;5.78;4.10;;;;;;;25.57;56.71;100610.28;6299633;28;20661;-80
2021/07/25 13:35:20;;;;;;;5.20;3.90;;;;;;;25.58;53.72;100617.38;6306805;28;20051;-81
2021/07/25 13:38:22;;;;;;;6.32;4.20;;;;;;;25.81;52.97;100614.66;6315700;28;20048;-81
2021/07/25 13:41:24;;;;;;;7.18;4.05;;;;;;;25.89;56.88;100619.97;6317128;28;20048;-81
2021/07/25 13:44:25;;;;;;;6.85;4.90;;;;;;;25.69;61.62;100625.00;6305667;28;20059;-80
2021/07/25 13:47:27;;;;;;;14.35;5.18;;;;;;;25.50;65.05;100620.13;6320156;28;20048;-81
2021/07/25 13:50:31;;;;;;;6.65;4.97;;;;;;;25.35;65.29;100616.59;6326458;28;20439;-80
2021/07/25 13:53:34;;;;;;;8.68;5.18;;;;;;;25.32;63.05;100612.38;6327162;28;20044;-81